createdAt,value
2019-03-09T00:00:25.316Z,1007.14
2019-03-09T00:01:25.310Z,1007.24
2019-03-09T00:02:25.278Z,1007.19
2019-03-09T00:03:25.257Z,1007.2
2019-03-09T00:04:25.233Z,1007.11
2019-03-09T00:05:25.210Z,1007.17
2019-03-09T00:06:25.191Z,1007.12
2019-03-09T00:07:25.173Z,1007.12
2019-03-09T00:08:25.144Z,1007.02
2019-03-09T00:09:25.129Z,1007.08
2019-03-09T00:10:25.103Z,1007
2019-03-09T00:11:25.085Z,1007.03
2019-03-09T00:12:25.065Z,1007
2019-03-09T00:13:25.042Z,1007
2019-03-09T00:14:25.020Z,1007
2019-03-09T00:15:24.995Z,1006.98
2019-03-09T00:16:24.978Z,1007.01
2019-03-09T00:17:24.957Z,1006.97
2019-03-09T00:18:24.932Z,1006.95
2019-03-09T00:19:24.908Z,1006.91
2019-03-09T00:20:24.893Z,1007
2019-03-09T00:21:24.872Z,1006.98
2019-03-09T00:22:24.850Z,1006.98
2019-03-09T00:23:24.829Z,1006.94
2019-03-09T00:24:24.807Z,1006.97
2019-03-09T00:25:24.902Z,1006.95
2019-03-09T00:26:24.764Z,1006.96
2019-03-09T00:27:29.691Z,1006.93
2019-03-09T00:28:24.716Z,1006.97
2019-03-09T00:29:24.701Z,1007
2019-03-09T00:30:24.705Z,1006.95
2019-03-09T00:31:25.412Z,1006.96
2019-03-09T00:32:24.653Z,1006.93
2019-03-09T00:33:24.611Z,1006.89
2019-03-09T00:34:24.594Z,1006.92
2019-03-09T00:35:24.572Z,1006.88
2019-03-09T00:36:24.546Z,1006.85
2019-03-09T00:37:24.523Z,1006.93
2019-03-09T00:38:24.503Z,1006.77
2019-03-09T00:39:24.486Z,1006.81
2019-03-09T00:40:24.471Z,1006.81
2019-03-09T00:41:24.442Z,1006.82
2019-03-09T00:42:24.418Z,1006.81
2019-03-09T00:43:24.400Z,1006.84
2019-03-09T00:44:24.384Z,1006.78
2019-03-09T00:45:24.359Z,1006.84
2019-03-09T00:46:24.333Z,1006.78
2019-03-09T00:47:24.312Z,1006.71
2019-03-09T00:48:24.294Z,1006.72
2019-03-09T00:49:24.275Z,1006.75
2019-03-09T00:50:24.248Z,1006.71
2019-03-09T00:51:24.227Z,1006.66
2019-03-09T00:52:24.209Z,1006.62
2019-03-09T00:53:24.189Z,1006.61
2019-03-09T00:54:24.166Z,1006.67
2019-03-09T00:55:24.139Z,1006.65
2019-03-09T00:56:24.123Z,1006.58
2019-03-09T00:57:24.098Z,1006.63
2019-03-09T00:58:24.081Z,1006.6
2019-03-09T00:59:24.056Z,1006.61
2019-03-09T01:00:24.033Z,1006.58
2019-03-09T01:01:24.013Z,1006.49
2019-03-09T01:02:23.995Z,1006.52
2019-03-09T01:03:23.974Z,1006.46
2019-03-09T01:04:23.948Z,1006.43
2019-03-09T01:05:23.925Z,1006.38
2019-03-09T01:06:23.910Z,1006.39
2019-03-09T01:07:23.887Z,1006.42
2019-03-09T01:08:23.866Z,1006.35
2019-03-09T01:09:23.841Z,1006.37
2019-03-09T01:10:23.819Z,1006.37
2019-03-09T01:11:23.802Z,1006.28
2019-03-09T01:12:23.776Z,1006.29
2019-03-09T01:13:23.759Z,1006.25
2019-03-09T01:14:23.733Z,1006.28
2019-03-09T01:15:23.717Z,1006.29
2019-03-09T01:16:23.696Z,1006.42
2019-03-09T01:17:23.673Z,1006.18
2019-03-09T01:18:23.648Z,1006.23
2019-03-09T01:19:23.626Z,1006.19
2019-03-09T01:20:23.610Z,1006.17
2019-03-09T01:21:23.588Z,1006.16
2019-03-09T01:22:23.562Z,1006.07
2019-03-09T01:23:23.540Z,1006.09
2019-03-09T01:24:23.524Z,1006.06
2019-03-09T01:25:23.502Z,1006.08
2019-03-09T01:26:23.499Z,1006.03
2019-03-09T01:27:23.455Z,1005.99
2019-03-09T01:28:23.437Z,1006.05
2019-03-09T01:29:23.412Z,1006.01
2019-03-09T01:30:23.395Z,1006.01
2019-03-09T01:31:23.374Z,1005.97
2019-03-09T01:32:23.352Z,1005.9
2019-03-09T01:33:23.333Z,1005.9
2019-03-09T01:34:23.305Z,1005.9
2019-03-09T01:35:23.283Z,1005.86
2019-03-09T01:36:23.273Z,1005.91
2019-03-09T01:37:23.244Z,1005.88
2019-03-09T01:38:23.220Z,1005.84
2019-03-09T01:39:23.197Z,1005.82
2019-03-09T01:40:23.181Z,1005.82
2019-03-09T01:41:23.159Z,1005.78
2019-03-09T01:42:23.138Z,1005.82
2019-03-09T01:43:23.111Z,1005.76
2019-03-09T01:44:23.095Z,1005.75
2019-03-09T01:45:23.070Z,1005.7
2019-03-09T01:46:23.052Z,1005.64
2019-03-09T01:47:23.026Z,1005.66
2019-03-09T01:48:23.006Z,1005.59
2019-03-09T01:49:22.986Z,1005.55
2019-03-09T01:50:22.970Z,1005.59
2019-03-09T01:51:22.944Z,1005.53
2019-03-09T01:52:22.920Z,1005.59
2019-03-09T01:53:22.897Z,1005.61
2019-03-09T01:54:22.878Z,1005.66
2019-03-09T01:55:22.859Z,1005.63
2019-03-09T01:56:22.844Z,1005.63
2019-03-09T01:57:22.815Z,1005.57
2019-03-09T01:58:22.791Z,1005.46
2019-03-09T01:59:22.773Z,1005.58
2019-03-09T02:00:22.747Z,1005.47
2019-03-09T02:01:22.730Z,1005.53
2019-03-09T02:02:22.703Z,1005.52
2019-03-09T02:03:22.693Z,1005.44
2019-03-09T02:04:22.666Z,1005.43
2019-03-09T02:05:22.644Z,1005.4
2019-03-09T02:06:22.618Z,1005.4
2019-03-09T02:07:22.597Z,1005.4
2019-03-09T02:08:22.580Z,1005.47
2019-03-09T02:09:22.562Z,1005.45
2019-03-09T02:10:22.533Z,1005.4
2019-03-09T02:11:22.511Z,1005.46
2019-03-09T02:12:22.493Z,1005.42
2019-03-09T02:13:22.472Z,1005.39
2019-03-09T02:14:22.451Z,1005.41
2019-03-09T02:15:22.426Z,1005.47
2019-03-09T02:16:22.407Z,1005.36
2019-03-09T02:17:22.382Z,1005.35
2019-03-09T02:18:22.366Z,1005.36
2019-03-09T02:19:22.343Z,1005.45
2019-03-09T02:20:22.319Z,1005.48
2019-03-09T02:21:22.300Z,1005.38
2019-03-09T02:22:22.281Z,1005.37
2019-03-09T02:23:22.260Z,1005.37
2019-03-09T02:24:22.233Z,1005.39
2019-03-09T02:25:22.213Z,1005.27
2019-03-09T02:26:22.194Z,1005.34
2019-03-09T02:27:22.173Z,1005.32
2019-03-09T02:28:22.191Z,1005.33
2019-03-09T02:29:22.130Z,1005.27
2019-03-09T02:30:22.105Z,1005.24
2019-03-09T02:31:22.088Z,1005.23
2019-03-09T02:32:22.061Z,1005.3
2019-03-09T02:33:22.045Z,1005.24
2019-03-09T02:34:22.018Z,1005.22
2019-03-09T02:35:22.009Z,1005.22
2019-03-09T02:36:21.981Z,1005.2
2019-03-09T02:37:22.003Z,1005.21
2019-03-09T02:38:21.956Z,1005.21
2019-03-09T02:39:21.917Z,1005.21
2019-03-09T02:40:23.037Z,1005.23
2019-03-09T02:41:21.873Z,1005.26
2019-03-09T02:42:21.848Z,1005.2
2019-03-09T02:43:21.838Z,1005.24
2019-03-09T02:44:21.820Z,1005.29
2019-03-09T02:45:21.798Z,1005.3
2019-03-09T02:46:21.773Z,1005.28
2019-03-09T02:47:21.740Z,1005.23
2019-03-09T02:48:21.724Z,1005.19
2019-03-09T02:49:21.696Z,1005.18
2019-03-09T02:50:21.685Z,1005.19
2019-03-09T02:51:21.654Z,1005.2
2019-03-09T02:52:21.631Z,1005.21
2019-03-09T02:53:21.609Z,1005.16
2019-03-09T02:54:21.593Z,1005.24
2019-03-09T02:55:21.582Z,1005.27
2019-03-09T02:56:21.547Z,1005.21
2019-03-09T02:57:21.525Z,1005.23
2019-03-09T02:58:21.507Z,1005.23
2019-03-09T02:59:21.487Z,1005.22
2019-03-09T03:00:21.466Z,1005.23
2019-03-09T03:01:21.439Z,1005.15
2019-03-09T03:02:21.418Z,1005.19
2019-03-09T03:03:21.401Z,1005.19
2019-03-09T03:04:21.373Z,1005.25
2019-03-09T03:05:21.364Z,1005.28
2019-03-09T03:06:21.335Z,1005.28
2019-03-09T03:07:21.314Z,1005.32
2019-03-09T03:08:21.293Z,1005.24
2019-03-09T03:09:21.275Z,1005.27
2019-03-09T03:10:21.371Z,1005.23
2019-03-09T03:11:21.223Z,1005.22
2019-03-09T03:12:21.206Z,1005.25
2019-03-09T03:13:21.185Z,1005.27
2019-03-09T03:14:21.158Z,1005.26
2019-03-09T03:15:21.151Z,1005.32
2019-03-09T03:16:21.123Z,1005.25
2019-03-09T03:17:21.100Z,1005.19
2019-03-09T03:18:21.077Z,1005.2
2019-03-09T03:19:21.053Z,1005.23
2019-03-09T03:20:21.035Z,1005.33
2019-03-09T03:21:21.009Z,1005.26
2019-03-09T03:22:20.991Z,1005.28
2019-03-09T03:23:20.983Z,1005.4
2019-03-09T03:24:20.943Z,1005.36
2019-03-09T03:25:20.926Z,1005.42
2019-03-09T03:26:20.904Z,1005.37
2019-03-09T03:27:20.884Z,1005.38
2019-03-09T03:28:20.861Z,1005.43
2019-03-09T03:29:20.837Z,1005.52
2019-03-09T03:30:20.842Z,1005.43
2019-03-09T03:31:20.798Z,1005.41
2019-03-09T03:32:20.774Z,1005.42
2019-03-09T03:33:20.751Z,1005.38
2019-03-09T03:34:20.744Z,1005.39
2019-03-09T03:35:20.712Z,1005.42
2019-03-09T03:36:20.686Z,1005.32
2019-03-09T03:37:20.668Z,1005.34
2019-03-09T03:38:20.643Z,1005.24
2019-03-09T03:39:20.664Z,1005.29
2019-03-09T03:40:20.603Z,1005.24
2019-03-09T03:41:20.583Z,1005.25
2019-03-09T03:42:20.569Z,1005.22
2019-03-09T03:43:20.541Z,1005.22
2019-03-09T03:44:20.519Z,1005.22
2019-03-09T03:45:20.496Z,1005.28
2019-03-09T03:46:20.471Z,1005.32
2019-03-09T03:47:20.451Z,1005.36
2019-03-09T03:48:20.432Z,1005.39
2019-03-09T03:49:20.413Z,1005.31
2019-03-09T03:50:20.391Z,1005.33
2019-03-09T03:51:20.362Z,1005.37
2019-03-09T03:52:20.347Z,1005.39
2019-03-09T03:53:20.322Z,1005.37
2019-03-09T03:54:20.305Z,1005.47
2019-03-09T03:55:20.278Z,1005.42
2019-03-09T03:56:20.257Z,1005.46
2019-03-09T03:57:20.235Z,1005.38
2019-03-09T03:58:20.218Z,1005.39
2019-03-09T03:59:20.201Z,1005.37
2019-03-09T04:00:20.172Z,1005.36
2019-03-09T04:01:20.149Z,1005.4
2019-03-09T04:02:20.132Z,1005.48
2019-03-09T04:03:20.110Z,1005.47
2019-03-09T04:04:20.085Z,1005.47
2019-03-09T04:05:20.081Z,1005.44
2019-03-09T04:06:20.045Z,1005.5
2019-03-09T04:07:20.032Z,1005.48
2019-03-09T04:08:20.007Z,1005.48
2019-03-09T04:09:19.982Z,1005.52
2019-03-09T04:10:19.959Z,1005.55
2019-03-09T04:11:19.938Z,1005.48
2019-03-09T04:12:19.920Z,1005.46
2019-03-09T04:13:19.894Z,1005.43
2019-03-09T04:14:19.870Z,1005.55
2019-03-09T04:15:19.848Z,1005.58
2019-03-09T04:16:19.830Z,1005.55
2019-03-09T04:17:19.809Z,1005.55
2019-03-09T04:18:19.789Z,1005.59
2019-03-09T04:19:19.766Z,1005.56
2019-03-09T04:20:19.745Z,1005.57
2019-03-09T04:21:19.724Z,1005.56
2019-03-09T04:22:19.704Z,1005.66
2019-03-09T04:23:19.677Z,1005.66
2019-03-09T04:24:19.659Z,1005.7
2019-03-09T04:25:19.634Z,1005.73
2019-03-09T04:26:19.616Z,1005.67
2019-03-09T04:27:19.590Z,1005.69
2019-03-09T04:28:19.569Z,1005.75
2019-03-09T04:29:19.547Z,1005.78
2019-03-09T04:30:19.530Z,1005.85
2019-03-09T04:31:19.509Z,1005.86
2019-03-09T04:32:19.482Z,1005.87
2019-03-09T04:33:19.461Z,1005.87
2019-03-09T04:34:19.444Z,1005.88
2019-03-09T04:35:19.422Z,1005.93
2019-03-09T04:36:19.396Z,1005.88
2019-03-09T04:37:19.380Z,1005.97
2019-03-09T04:38:19.353Z,1006.02
2019-03-09T04:39:19.336Z,1006.1
2019-03-09T04:40:19.312Z,1006.09
2019-03-09T04:41:19.312Z,1006.14
2019-03-09T04:42:19.269Z,1006.13
2019-03-09T04:43:19.250Z,1006.12
2019-03-09T04:44:19.229Z,1006.09
2019-03-09T04:45:19.208Z,1006.14
2019-03-09T04:46:19.181Z,1006.13
2019-03-09T04:47:19.160Z,1006.23
2019-03-09T04:48:19.143Z,1006.24
2019-03-09T04:49:19.127Z,1006.12
2019-03-09T04:50:19.095Z,1006.19
2019-03-09T04:51:19.073Z,1006.16
2019-03-09T04:52:19.056Z,1006.2
2019-03-09T04:53:19.046Z,1006.16
2019-03-09T04:54:19.013Z,1006.15
2019-03-09T04:55:18.991Z,1006.21
2019-03-09T04:56:18.966Z,1006.23
2019-03-09T04:57:18.948Z,1006.19
2019-03-09T04:58:18.923Z,1006.26
2019-03-09T04:59:18.906Z,1006.35
2019-03-09T05:00:18.884Z,1006.39
2019-03-09T05:01:18.864Z,1006.42
2019-03-09T05:02:18.837Z,1006.49
2019-03-09T05:03:18.816Z,1006.47
2019-03-09T05:04:18.805Z,1006.54
2019-03-09T05:05:18.777Z,1006.54
2019-03-09T05:06:18.751Z,1006.54
2019-03-09T05:07:18.730Z,1006.54
2019-03-09T05:08:18.717Z,1006.6
2019-03-09T05:09:18.690Z,1006.59
2019-03-09T05:10:18.669Z,1006.62
2019-03-09T05:11:18.643Z,1006.61
2019-03-09T05:12:18.625Z,1006.59
2019-03-09T05:13:18.600Z,1006.49
2019-03-09T05:14:18.584Z,1006.52
2019-03-09T05:15:18.556Z,1006.49
2019-03-09T05:16:18.536Z,1006.49
2019-03-09T05:17:18.514Z,1006.43
2019-03-09T05:18:18.497Z,1006.49
2019-03-09T05:19:18.475Z,1006.39
2019-03-09T05:20:18.449Z,1006.43
2019-03-09T05:21:18.429Z,1006.44
2019-03-09T05:22:18.411Z,1006.51
2019-03-09T05:23:18.397Z,1006.51
2019-03-09T05:24:18.364Z,1006.65
2019-03-09T05:25:18.345Z,1006.69
2019-03-09T05:26:18.321Z,1006.63
2019-03-09T05:27:18.303Z,1006.63
2019-03-09T05:28:18.278Z,1006.73
2019-03-09T05:29:18.261Z,1006.72
2019-03-09T05:30:18.237Z,1006.79
2019-03-09T05:31:18.219Z,1006.83
2019-03-09T05:32:18.197Z,1006.91
2019-03-09T05:33:18.179Z,1006.94
2019-03-09T05:34:18.150Z,1006.95
2019-03-09T05:35:18.137Z,1006.91
2019-03-09T05:36:18.112Z,1006.95
2019-03-09T05:37:18.089Z,1007
2019-03-09T05:38:18.063Z,1006.95
2019-03-09T05:39:18.043Z,1007.09
2019-03-09T05:40:18.025Z,1007.11
2019-03-09T05:41:18.004Z,1007.07
2019-03-09T05:42:17.985Z,1007.14
2019-03-09T05:43:17.957Z,1007.12
2019-03-09T05:44:17.939Z,1007.07
2019-03-09T05:45:17.914Z,1007.02
2019-03-09T05:46:17.899Z,1007.05
2019-03-09T05:47:17.871Z,1007.16
2019-03-09T05:48:17.848Z,1007.12
2019-03-09T05:49:17.828Z,1007.16
2019-03-09T05:50:17.844Z,1007.14
2019-03-09T05:51:17.792Z,1007.16
2019-03-09T05:52:17.762Z,1007.13
2019-03-09T05:53:17.744Z,1007.16
2019-03-09T05:54:17.727Z,1007.04
2019-03-09T05:55:17.703Z,1006.98
2019-03-09T05:56:17.678Z,1006.88
2019-03-09T05:57:17.655Z,1006.83
2019-03-09T05:58:17.635Z,1006.76
2019-03-09T05:59:17.617Z,1006.72
2019-03-09T06:00:17.591Z,1006.71
2019-03-09T06:01:17.575Z,1006.75
2019-03-09T06:02:17.548Z,1006.76
2019-03-09T06:03:17.531Z,1006.71
2019-03-09T06:04:17.510Z,1006.75
2019-03-09T06:05:17.489Z,1006.83
2019-03-09T06:06:17.465Z,1006.88
2019-03-09T06:07:17.441Z,1006.86
2019-03-09T06:08:17.426Z,1006.85
2019-03-09T06:09:17.406Z,1006.81
2019-03-09T06:10:17.377Z,1006.82
2019-03-09T06:11:17.357Z,1006.84
2019-03-09T06:12:17.339Z,1006.8
2019-03-09T06:13:17.317Z,1006.82
2019-03-09T06:14:17.295Z,1006.88
2019-03-09T06:15:17.270Z,1006.99
2019-03-09T06:16:17.253Z,1007
2019-03-09T06:17:17.225Z,1007.09
2019-03-09T06:18:17.210Z,1007.12
2019-03-09T06:19:17.184Z,1007.09
2019-03-09T06:20:17.163Z,1007.09
2019-03-09T06:21:17.141Z,1007.06
2019-03-09T06:22:17.124Z,1007.03
2019-03-09T06:23:17.105Z,1007.06
2019-03-09T06:24:17.079Z,1007.1
2019-03-09T06:25:17.056Z,1007.06
2019-03-09T06:26:17.043Z,1007
2019-03-09T06:27:17.021Z,1007.13
2019-03-09T06:28:16.992Z,1007.1
2019-03-09T06:29:16.970Z,1007.22
2019-03-09T06:30:16.949Z,1007.29
2019-03-09T06:31:16.934Z,1007.42
2019-03-09T06:32:16.904Z,1007.42
2019-03-09T06:33:16.890Z,1007.45
2019-03-09T06:34:16.863Z,1007.55
2019-03-09T06:35:16.845Z,1007.6
2019-03-09T06:36:16.826Z,1007.69
2019-03-09T06:37:16.802Z,1007.68
2019-03-09T06:38:16.781Z,1007.7
2019-03-09T06:39:16.759Z,1007.71
2019-03-09T06:40:16.738Z,1007.73
2019-03-09T06:41:16.718Z,1007.71
2019-03-09T06:42:16.699Z,1007.76
2019-03-09T06:43:16.676Z,1007.72
2019-03-09T06:44:16.649Z,1007.79
2019-03-09T06:45:16.630Z,1007.75
2019-03-09T06:46:16.611Z,1007.72
2019-03-09T06:47:16.611Z,1007.74
2019-03-09T06:48:16.564Z,1007.73
2019-03-09T06:49:16.545Z,1007.75
2019-03-09T06:50:16.518Z,1007.73
2019-03-09T06:51:16.502Z,1007.75
2019-03-09T06:52:16.481Z,1007.76
2019-03-09T06:53:16.460Z,1007.8
2019-03-09T06:54:16.435Z,1007.88
2019-03-09T06:55:16.411Z,1007.85
2019-03-09T06:56:16.395Z,1007.91
2019-03-09T06:57:16.372Z,1007.98
2019-03-09T06:58:16.347Z,1008.04
2019-03-09T06:59:16.326Z,1008.03
2019-03-09T07:00:16.312Z,1008.04
2019-03-09T07:01:16.287Z,1008.06
2019-03-09T07:02:16.266Z,1008.09
2019-03-09T07:03:16.242Z,1008.05
2019-03-09T07:04:16.223Z,1008
2019-03-09T07:05:16.198Z,1007.98
2019-03-09T07:06:16.181Z,1007.98
2019-03-09T07:07:16.156Z,1008.01
2019-03-09T07:08:16.134Z,1007.95
2019-03-09T07:09:16.112Z,1008.04
2019-03-09T07:10:16.098Z,1008.04
2019-03-09T07:11:16.078Z,1008.01
2019-03-09T07:12:16.057Z,1008
2019-03-09T07:13:16.030Z,1008.01
2019-03-09T07:14:16.010Z,1008
2019-03-09T07:15:15.989Z,1008.03
2019-03-09T07:16:15.962Z,1008.03
2019-03-09T07:17:15.941Z,1008.04
2019-03-09T07:18:15.928Z,1008.02
2019-03-09T07:19:15.905Z,1008.05
2019-03-09T07:20:15.877Z,1008.09
2019-03-09T07:21:15.860Z,1008.11
2019-03-09T07:22:15.835Z,1008.2
2019-03-09T07:23:15.817Z,1008.16
2019-03-09T07:24:15.796Z,1008.22
2019-03-09T07:25:15.774Z,1008.16
2019-03-09T07:26:15.754Z,1008.25
2019-03-09T07:27:15.726Z,1008.26
2019-03-09T07:28:15.710Z,1008.33
2019-03-09T07:29:15.688Z,1008.26
2019-03-09T07:30:15.662Z,1008.31
2019-03-09T07:31:15.641Z,1008.34
2019-03-09T07:32:15.624Z,1008.33
2019-03-09T07:33:15.609Z,1008.39
2019-03-09T07:34:15.581Z,1008.41
2019-03-09T07:35:15.555Z,1008.45
2019-03-09T07:36:15.538Z,1008.44
2019-03-09T07:37:15.513Z,1008.53
2019-03-09T07:38:15.496Z,1008.59
2019-03-09T07:39:15.470Z,1008.56
2019-03-09T07:40:15.449Z,1008.6
2019-03-09T07:41:15.429Z,1008.57
2019-03-09T07:42:15.410Z,1008.64
2019-03-09T07:43:15.388Z,1008.61
2019-03-09T07:44:15.362Z,1008.48
2019-03-09T07:45:15.341Z,1008.54
2019-03-09T07:46:15.326Z,1008.46
2019-03-09T07:47:15.304Z,1008.46
2019-03-09T07:48:15.279Z,1008.43
2019-03-09T07:49:15.257Z,1008.38
2019-03-09T07:50:15.233Z,1008.41
2019-03-09T07:51:15.218Z,1008.37
2019-03-09T07:52:15.191Z,1008.4
2019-03-09T07:53:15.174Z,1008.33
2019-03-09T07:54:15.149Z,1008.33
2019-03-09T07:55:15.132Z,1008.47
2019-03-09T07:56:15.110Z,1008.36
2019-03-09T07:57:15.088Z,1008.3
2019-03-09T07:58:15.062Z,1008.27
2019-03-09T07:59:15.041Z,1008.26
2019-03-09T08:00:15.027Z,1008.26
2019-03-09T08:01:15.003Z,1008.28
2019-03-09T08:02:14.978Z,1008.32
2019-03-09T08:03:14.955Z,1008.36
2019-03-09T08:04:14.942Z,1008.34
2019-03-09T08:05:14.918Z,1008.39
2019-03-09T08:06:14.896Z,1008.47
2019-03-09T08:07:15.032Z,1008.53
2019-03-09T08:08:14.853Z,1008.53
2019-03-09T08:09:14.828Z,1008.51
2019-03-09T08:10:14.810Z,1008.55
2019-03-09T08:11:14.785Z,1008.63
2019-03-09T08:12:14.764Z,1008.66
2019-03-09T08:13:14.742Z,1008.69
2019-03-09T08:14:14.725Z,1008.67
2019-03-09T08:15:14.705Z,1008.78
2019-03-09T08:16:14.679Z,1008.72
2019-03-09T08:17:14.657Z,1008.75
2019-03-09T08:18:14.639Z,1008.77
2019-03-09T08:19:14.618Z,1008.82
2019-03-09T08:20:14.605Z,1008.79
2019-03-09T08:21:14.575Z,1008.81
2019-03-09T08:22:14.554Z,1008.71
2019-03-09T08:23:14.534Z,1008.8
2019-03-09T08:24:14.511Z,1008.86
2019-03-09T08:25:14.485Z,1008.81
2019-03-09T08:26:14.478Z,1008.75
2019-03-09T08:27:14.458Z,1008.78
2019-03-09T08:28:16.307Z,1008.74
2019-03-09T08:29:14.401Z,1008.67
2019-03-09T08:30:14.383Z,1008.66
2019-03-09T08:31:14.380Z,1008.58
2019-03-09T08:32:14.334Z,1008.53
2019-03-09T08:33:14.325Z,1008.48
2019-03-09T08:34:14.297Z,1008.39
2019-03-09T08:35:14.276Z,1008.39
2019-03-09T08:36:14.274Z,1008.34
2019-03-09T08:37:14.231Z,1008.33
2019-03-09T08:38:14.208Z,1008.26
2019-03-09T08:39:14.195Z,1008.23
2019-03-09T08:40:14.169Z,1008.21
2019-03-09T08:41:14.177Z,1008.19
2019-03-09T08:42:14.127Z,1008.18
2019-03-09T08:43:14.109Z,1008.26
2019-03-09T08:44:14.091Z,1008.27
2019-03-09T08:45:14.063Z,1008.3
2019-03-09T08:46:14.069Z,1008.23
2019-03-09T08:47:14.022Z,1008.35
2019-03-09T08:48:13.998Z,1008.45
2019-03-09T08:49:13.993Z,1008.46
2019-03-09T08:50:13.951Z,1008.54
2019-03-09T08:51:13.966Z,1008.43
2019-03-09T08:52:13.938Z,1008.51
2019-03-09T08:53:13.893Z,1008.55
2019-03-09T08:54:13.888Z,1008.47
2019-03-09T08:55:13.916Z,1008.49
2019-03-09T08:56:13.868Z,1008.59
2019-03-09T08:57:13.819Z,1008.52
2019-03-09T08:58:13.787Z,1008.62
2019-03-09T08:59:13.797Z,1008.6
2019-03-09T09:00:13.766Z,1008.65
2019-03-09T09:01:13.749Z,1008.69
2019-03-09T09:02:13.723Z,1008.67
2019-03-09T09:03:13.679Z,1008.69
2019-03-09T09:04:13.653Z,1008.7
2019-03-09T09:05:13.631Z,1008.76
2019-03-09T09:06:13.614Z,1008.78
2019-03-09T09:07:13.592Z,1008.76
2019-03-09T09:08:13.568Z,1008.81
2019-03-09T09:09:13.551Z,1008.75
2019-03-09T09:10:13.541Z,1008.79
2019-03-09T09:11:13.513Z,1008.71
2019-03-09T09:12:13.481Z,1008.69
2019-03-09T09:13:13.464Z,1008.57
2019-03-09T09:14:13.439Z,1008.66
2019-03-09T09:15:14.828Z,1008.5
2019-03-09T09:16:13.401Z,1008.57
2019-03-09T09:17:13.381Z,1008.55
2019-03-09T09:18:13.358Z,1008.46
2019-03-09T09:19:13.333Z,1008.56
2019-03-09T09:20:13.315Z,1008.5
2019-03-09T09:21:13.294Z,1008.59
2019-03-09T09:22:13.269Z,1008.53
2019-03-09T09:23:13.249Z,1008.54
2019-03-09T09:24:13.229Z,1008.39
2019-03-09T09:25:13.208Z,1008.46
2019-03-09T09:26:13.187Z,1008.39
2019-03-09T09:27:13.160Z,1008.43
2019-03-09T09:28:13.144Z,1008.35
2019-03-09T09:29:13.119Z,1008.32
2019-03-09T09:30:13.104Z,1008.33
2019-03-09T09:31:13.216Z,1008.26
2019-03-09T09:32:13.054Z,1008.26
2019-03-09T09:33:13.033Z,1008.34
2019-03-09T09:34:13.015Z,1008.33
2019-03-09T09:35:12.996Z,1008.44
2019-03-09T09:36:12.969Z,1008.41
2019-03-09T09:37:12.947Z,1008.36
2019-03-09T09:38:12.930Z,1008.33
2019-03-09T09:39:12.911Z,1008.34
2019-03-09T09:40:12.884Z,1008.42
2019-03-09T09:41:12.875Z,1008.43
2019-03-09T09:42:12.841Z,1008.52
2019-03-09T09:43:12.824Z,1008.62
2019-03-09T09:44:12.799Z,1008.66
2019-03-09T09:45:12.781Z,1008.68
2019-03-09T09:46:12.757Z,1008.72
2019-03-09T09:47:12.739Z,1008.88
2019-03-09T09:48:12.718Z,1008.92
2019-03-09T09:49:12.703Z,1008.71
2019-03-09T09:50:12.670Z,1008.77
2019-03-09T09:51:12.649Z,1008.63
2019-03-09T09:52:12.635Z,1008.68
2019-03-09T09:53:12.657Z,1008.73
2019-03-09T09:54:12.585Z,1008.76
2019-03-09T09:55:12.564Z,1008.74
2019-03-09T09:56:12.557Z,1008.63
2019-03-09T09:57:12.525Z,1008.61
2019-03-09T09:58:12.504Z,1008.58
2019-03-09T09:59:14.366Z,1008.54
2019-03-09T10:00:12.461Z,1008.48
2019-03-09T10:01:12.436Z,1008.48
2019-03-09T10:02:12.418Z,1008.41
2019-03-09T10:03:12.395Z,1008.37
2019-03-09T10:04:12.372Z,1008.36
2019-03-09T10:05:12.356Z,1008.31
2019-03-09T10:06:12.335Z,1008.2
2019-03-09T10:07:12.312Z,1008.17
2019-03-09T10:08:12.287Z,1008.27
2019-03-09T10:09:12.266Z,1008.28
2019-03-09T10:10:12.249Z,1008.32
2019-03-09T10:11:12.228Z,1008.39
2019-03-09T10:12:12.202Z,1008.39
2019-03-09T10:13:12.182Z,1008.46
2019-03-09T10:14:12.160Z,1008.52
2019-03-09T10:15:12.145Z,1008.47
2019-03-09T10:16:12.120Z,1008.52
2019-03-09T10:17:12.102Z,1008.52
2019-03-09T10:18:12.073Z,1008.5
2019-03-09T10:19:12.059Z,1008.56
2019-03-09T10:20:12.040Z,1008.56
2019-03-09T10:21:12.020Z,1008.55
2019-03-09T10:22:11.990Z,1008.58
2019-03-09T10:23:11.969Z,1008.57
2019-03-09T10:24:11.956Z,1008.56
2019-03-09T10:25:11.930Z,1008.55
2019-03-09T10:26:11.905Z,1008.4
2019-03-09T10:27:11.884Z,1008.41
2019-03-09T10:28:11.890Z,1008.35
2019-03-09T10:29:11.846Z,1008.35
2019-03-09T10:30:11.825Z,1008.39
2019-03-09T10:31:11.799Z,1008.37
2019-03-09T10:32:11.783Z,1008.29
2019-03-09T10:33:11.756Z,1008.39
2019-03-09T10:34:11.739Z,1008.45
2019-03-09T10:35:11.714Z,1008.65
2019-03-09T10:36:11.692Z,1008.38
2019-03-09T10:37:11.670Z,1008.37
2019-03-09T10:38:11.654Z,1008.31
2019-03-09T10:39:11.647Z,1008.3
2019-03-09T10:40:11.607Z,1008.31
2019-03-09T10:41:11.586Z,1008.21
2019-03-09T10:42:11.569Z,1008.17
2019-03-09T10:43:11.548Z,1008.18
2019-03-09T10:44:11.525Z,1008.13
2019-03-09T10:45:11.502Z,1008.13
2019-03-09T10:46:11.480Z,1008.1
2019-03-09T10:47:11.462Z,1008.01
2019-03-09T10:48:11.451Z,1008.05
2019-03-09T10:49:11.420Z,1007.94
2019-03-09T10:50:11.398Z,1007.87
2019-03-09T10:51:11.377Z,1007.86
2019-03-09T10:52:11.357Z,1007.94
2019-03-09T10:53:11.336Z,1007.95
2019-03-09T10:54:11.310Z,1007.96
2019-03-09T10:55:11.288Z,1007.94
2019-03-09T10:56:11.271Z,1007.9
2019-03-09T10:57:11.371Z,1007.96
2019-03-09T10:58:11.224Z,1007.9
2019-03-09T10:59:11.206Z,1007.92
2019-03-09T11:00:11.187Z,1007.96
2019-03-09T11:01:11.166Z,1007.97
2019-03-09T11:02:11.143Z,1007.95
2019-03-09T11:03:11.118Z,1007.87
2019-03-09T11:04:11.102Z,1007.87
2019-03-09T11:05:11.077Z,1007.77
2019-03-09T11:06:11.059Z,1007.66
2019-03-09T11:07:11.034Z,1007.58
2019-03-09T11:08:11.014Z,1007.63
2019-03-09T11:09:10.991Z,1007.74
2019-03-09T11:10:10.982Z,1007.79
2019-03-09T11:11:10.953Z,1007.81
2019-03-09T11:12:10.929Z,1007.86
2019-03-09T11:13:10.906Z,1007.87
2019-03-09T11:14:10.890Z,1007.84
2019-03-09T11:15:10.869Z,1007.92
2019-03-09T11:16:10.845Z,1008
2019-03-09T11:17:10.822Z,1008.17
2019-03-09T11:18:10.804Z,1008.05
2019-03-09T11:19:10.789Z,1008.05
2019-03-09T11:20:10.756Z,1007.97
2019-03-09T11:21:10.740Z,1007.83
2019-03-09T11:22:10.716Z,1007.88
2019-03-09T11:23:10.699Z,1007.94
2019-03-09T11:24:10.677Z,1007.85
2019-03-09T11:25:10.658Z,1007.79
2019-03-09T11:26:10.631Z,1007.81
2019-03-09T11:27:10.610Z,1007.78
2019-03-09T11:28:10.592Z,1007.76
2019-03-09T11:29:10.572Z,1007.81
2019-03-09T11:30:10.546Z,1007.77
2019-03-09T11:31:10.524Z,1007.84
2019-03-09T11:32:10.509Z,1007.86
2019-03-09T11:33:10.487Z,1007.79
2019-03-09T11:34:10.468Z,1007.83
2019-03-09T11:35:10.440Z,1008.04
2019-03-09T11:36:10.423Z,1007.81
2019-03-09T11:37:10.398Z,1007.74
2019-03-09T11:38:10.381Z,1007.63
2019-03-09T11:39:10.355Z,1007.54
2019-03-09T11:40:10.334Z,1007.56
2019-03-09T11:41:18.705Z,1007.46
2019-03-09T11:42:10.296Z,1007.53
2019-03-09T11:43:10.284Z,1007.65
2019-03-09T11:44:10.249Z,1007.57
2019-03-09T11:45:10.233Z,1007.46
2019-03-09T11:46:10.214Z,1007.47
2019-03-09T11:47:10.186Z,1007.48
2019-03-09T11:48:10.170Z,1007.38
2019-03-09T11:49:10.151Z,1007.49
2019-03-09T11:50:10.128Z,1007.3
2019-03-09T11:51:10.102Z,1007.19
2019-03-09T11:52:19.465Z,1007.09
2019-03-09T11:53:10.059Z,1007.05
2019-03-09T11:54:10.043Z,1007.01
2019-03-09T11:55:10.019Z,1006.86
2019-03-09T11:56:09.999Z,1006.99
2019-03-09T11:57:09.975Z,1006.9
2019-03-09T11:58:09.960Z,1006.8
2019-03-09T11:59:09.937Z,1006.73
2019-03-09T12:00:09.913Z,1006.67
2019-03-09T12:01:09.890Z,1006.55
2019-03-09T12:02:09.874Z,1006.55
2019-03-09T12:03:09.854Z,1006.57
2019-03-09T12:04:09.826Z,1006.49
2019-03-09T12:05:09.808Z,1006.51
2019-03-09T12:06:09.785Z,1006.56
2019-03-09T12:07:09.770Z,1006.52
2019-03-09T12:08:09.742Z,1006.43